createdAt,value
2023-05-02T06:51:12.818Z,21.29
2023-05-02T06:52:12.802Z,21.44
2023-05-02T06:53:13.627Z,21.52
2023-05-02T06:54:12.603Z,21.65
2023-05-02T06:55:12.590Z,21.58
2023-05-02T06:56:12.590Z,21.74
2023-05-02T06:57:12.811Z,21.81
2023-05-02T06:58:12.583Z,21.96
2023-05-02T06:59:13.585Z,22.03
2023-05-02T07:00:12.575Z,22.06
2023-05-02T07:01:13.594Z,22.22
2023-05-02T07:02:12.539Z,22.31
2023-05-02T07:03:12.639Z,22.56
2023-05-02T07:04:13.567Z,22.67
2023-05-02T07:05:12.539Z,22.64
2023-05-02T07:06:13.615Z,22.62
2023-05-02T07:07:13.538Z,22.62
2023-05-02T07:08:12.511Z,22.68
2023-05-02T07:09:13.505Z,22.87
2023-05-02T07:10:12.482Z,22.97
2023-05-02T07:11:12.473Z,22.90
2023-05-02T07:12:13.518Z,22.92
2023-05-02T07:13:13.494Z,22.92
2023-05-02T07:14:12.476Z,23.01
2023-05-02T07:15:12.468Z,22.93
2023-05-02T07:16:12.541Z,22.88
2023-05-02T07:17:13.436Z,22.87
2023-05-02T07:18:13.464Z,22.84
2023-05-02T07:19:12.425Z,23.06
2023-05-02T07:20:13.431Z,23.20
2023-05-02T07:21:13.448Z,23.31
2023-05-02T07:22:12.450Z,23.32
2023-05-02T07:23:13.451Z,23.27
2023-05-02T07:24:12.475Z,23.40
2023-05-02T07:25:13.553Z,23.30
2023-05-02T07:26:13.575Z,23.32
2023-05-02T07:27:12.612Z,23.41
2023-05-02T07:28:12.662Z,23.33
2023-05-02T07:29:12.728Z,23.30
2023-05-02T07:30:13.783Z,23.26
2023-05-02T07:31:13.820Z,23.28
2023-05-02T07:32:12.984Z,23.34
2023-05-02T07:33:13.130Z,23.42
2023-05-02T07:34:13.965Z,23.30
2023-05-02T07:35:14.071Z,23.25
2023-05-02T07:36:14.077Z,23.27
2023-05-02T07:37:14.160Z,23.29
2023-05-02T07:38:14.178Z,23.42
2023-05-02T07:39:13.241Z,23.41
2023-05-02T07:40:14.275Z,23.48
2023-05-02T07:41:14.350Z,23.58
2023-05-02T07:42:13.380Z,23.74
2023-05-02T07:43:14.376Z,23.79
2023-05-02T07:44:13.471Z,23.69
2023-05-02T07:45:14.518Z,23.82
2023-05-02T07:46:14.596Z,23.81
2023-05-02T07:47:14.826Z,23.70
2023-05-02T07:48:14.592Z,23.66
2023-05-02T07:49:14.610Z,23.54
2023-05-02T07:50:14.684Z,23.62
2023-05-02T07:51:14.692Z,23.76
2023-05-02T07:52:13.832Z,23.70
2023-05-02T07:53:14.747Z,23.84
2023-05-02T07:54:13.788Z,23.75
2023-05-02T07:55:14.870Z,23.76
2023-05-02T07:56:14.920Z,23.64
2023-05-02T07:57:13.936Z,23.58
2023-05-02T07:58:15.031Z,23.50
2023-05-02T07:59:14.038Z,23.60
2023-05-02T08:00:15.071Z,23.55
2023-05-02T08:01:15.105Z,23.44
2023-05-02T08:02:14.377Z,23.39
2023-05-02T08:03:14.341Z,23.35
2023-05-02T08:04:15.571Z,23.35
2023-05-02T08:05:15.395Z,23.36
2023-05-02T08:06:14.319Z,23.33
2023-05-02T08:07:15.327Z,23.48
2023-05-02T08:08:14.389Z,23.52
2023-05-02T08:09:15.429Z,23.56
2023-05-02T08:10:15.447Z,23.57
2023-05-02T08:11:15.510Z,23.55
2023-05-02T08:12:15.548Z,23.54
2023-05-02T08:13:15.560Z,23.47
2023-05-02T08:14:15.600Z,23.46
2023-05-02T08:15:14.661Z,23.39
2023-05-02T08:16:15.732Z,23.36
2023-05-02T08:17:15.822Z,23.37
2023-05-02T08:18:15.827Z,23.36
2023-05-02T08:19:15.830Z,23.32
2023-05-02T08:20:15.850Z,23.29
2023-05-02T08:21:16.012Z,23.31
2023-05-02T08:22:15.964Z,23.29
2023-05-02T08:23:14.994Z,23.28
2023-05-02T08:24:16.038Z,23.45
2023-05-02T08:25:16.083Z,23.52
2023-05-02T08:26:15.109Z,23.64
2023-05-02T08:27:16.218Z,23.67
2023-05-02T08:28:15.237Z,23.59
2023-05-02T08:29:16.220Z,23.54
2023-05-02T08:30:16.278Z,23.53
2023-05-02T08:31:16.347Z,23.48
2023-05-02T08:32:15.368Z,23.54
2023-05-02T08:33:16.417Z,23.59
2023-05-02T08:34:15.445Z,23.54
2023-05-02T08:35:16.445Z,23.55
2023-05-02T08:36:16.493Z,23.59
2023-05-02T08:37:15.489Z,23.67
2023-05-02T08:38:16.514Z,23.69
2023-05-02T08:39:16.523Z,23.64
2023-05-02T08:40:21.913Z,23.70
2023-05-02T08:41:16.552Z,23.62
2023-05-02T08:42:16.564Z,23.83
2023-05-02T08:43:16.951Z,23.94
2023-05-02T08:44:16.526Z,23.95
2023-05-02T08:45:16.938Z,23.86
2023-05-02T08:46:16.646Z,23.90
2023-05-02T08:47:16.529Z,23.86
2023-05-02T08:48:16.558Z,23.83
2023-05-02T08:49:15.473Z,23.89
2023-05-02T08:50:15.474Z,23.95
2023-05-02T08:51:16.468Z,23.93
2023-05-02T08:52:15.453Z,24.02
2023-05-02T08:53:15.457Z,23.96
2023-05-02T08:54:15.446Z,23.84
2023-05-02T08:55:16.441Z,23.89
2023-05-02T08:56:15.422Z,23.74
2023-05-02T08:57:16.445Z,23.66
2023-05-02T08:58:17.811Z,23.59
2023-05-02T08:59:16.476Z,23.63
2023-05-02T09:00:15.480Z,23.62
2023-05-02T09:01:15.846Z,23.58
2023-05-02T09:02:15.546Z,23.53
2023-05-02T09:03:16.608Z,23.49
2023-05-02T09:04:16.652Z,23.49
2023-05-02T09:05:16.624Z,23.47
2023-05-02T09:06:16.638Z,23.46
2023-05-02T09:07:15.654Z,23.47
2023-05-02T09:08:15.700Z,23.46
2023-05-02T09:09:18.445Z,23.44
2023-05-02T09:10:15.671Z,23.41
2023-05-02T09:11:16.672Z,23.41
2023-05-02T09:12:15.650Z,23.40
2023-05-02T09:13:16.650Z,23.39
2023-05-02T09:14:16.674Z,23.37
2023-05-02T09:15:19.211Z,23.38
2023-05-02T09:16:16.679Z,23.36
2023-05-02T09:17:16.643Z,23.34
2023-05-02T09:18:16.622Z,23.36
2023-05-02T09:19:16.602Z,23.33
2023-05-02T09:20:15.633Z,23.30
2023-05-02T09:21:19.740Z,23.28
2023-05-02T09:22:16.594Z,23.26
2023-05-02T09:23:15.602Z,23.26
2023-05-02T09:24:16.578Z,23.25
2023-05-02T09:25:16.581Z,23.23
2023-05-02T09:26:16.558Z,23.22
2023-05-02T09:27:16.554Z,23.24
2023-05-02T09:28:16.555Z,23.22
2023-05-02T09:29:15.538Z,23.20
2023-05-02T09:30:16.549Z,23.19
2023-05-02T09:31:22.939Z,23.19
2023-05-02T09:32:16.560Z,23.17
2023-05-02T09:33:16.962Z,23.17
2023-05-02T09:34:15.522Z,23.17
2023-05-02T09:35:15.504Z,23.16
2023-05-02T09:36:16.475Z,23.16
2023-05-02T09:37:15.486Z,23.15
2023-05-02T09:38:16.487Z,23.16
2023-05-02T09:39:16.482Z,23.15
2023-05-02T09:40:16.500Z,23.15
2023-05-02T09:41:16.470Z,23.14
2023-05-02T09:42:15.453Z,23.15
2023-05-02T09:43:15.461Z,23.18
2023-05-02T09:44:16.453Z,23.17
2023-05-02T09:45:15.430Z,23.16
2023-05-02T09:46:15.557Z,23.15
2023-05-02T09:47:16.445Z,23.22
2023-05-02T09:48:15.866Z,23.32
2023-05-02T09:49:15.394Z,23.40
2023-05-02T09:50:15.406Z,23.50
2023-05-02T09:51:16.386Z,23.45
2023-05-02T09:52:16.402Z,23.39
2023-05-02T09:53:16.385Z,23.34
2023-05-02T09:54:16.377Z,23.30
2023-05-02T09:55:16.369Z,23.29
2023-05-02T09:56:15.389Z,23.28
2023-05-02T09:57:16.383Z,23.28
2023-05-02T09:58:16.396Z,23.27
2023-05-02T09:59:16.414Z,23.24
2023-05-02T10:00:16.412Z,23.22
2023-05-02T10:01:16.460Z,23.21
2023-05-02T10:02:16.435Z,23.20
2023-05-02T10:03:16.536Z,23.20
2023-05-02T10:04:16.566Z,23.19
2023-05-02T10:05:15.439Z,23.19
2023-05-02T10:06:16.556Z,23.19
2023-05-02T10:07:16.431Z,23.19
2023-05-02T10:08:15.435Z,23.20
2023-05-02T10:09:20.578Z,23.20
2023-05-02T10:10:16.455Z,23.20
2023-05-02T10:11:15.424Z,23.20
2023-05-02T10:12:16.410Z,23.21
2023-05-02T10:13:16.420Z,23.22
2023-05-02T10:14:16.410Z,23.22
2023-05-02T10:15:15.407Z,23.21
2023-05-02T10:16:15.482Z,23.22
2023-05-02T10:17:16.373Z,23.23
2023-05-02T10:18:16.391Z,23.22
2023-05-02T10:19:15.388Z,23.22
2023-05-02T10:20:15.454Z,23.23
2023-05-02T10:21:15.377Z,23.24
2023-05-02T10:22:15.368Z,23.25
2023-05-02T10:23:16.355Z,23.24
2023-05-02T10:24:15.325Z,23.25
2023-05-02T10:25:16.368Z,23.25
2023-05-02T10:26:16.319Z,23.25
2023-05-02T10:27:16.392Z,23.26
2023-05-02T10:28:15.312Z,23.26
2023-05-02T10:29:15.327Z,23.27
2023-05-02T10:30:16.333Z,23.26
2023-05-02T10:31:15.300Z,23.27
2023-05-02T10:32:16.284Z,23.27
2023-05-02T10:33:15.355Z,23.27
2023-05-02T10:34:16.294Z,23.28
2023-05-02T10:35:16.289Z,23.27
2023-05-02T10:36:16.254Z,23.27
2023-05-02T10:37:15.247Z,23.28
2023-05-02T10:38:15.254Z,23.29
2023-05-02T10:39:16.233Z,23.29
2023-05-02T10:40:15.392Z,23.28
2023-05-02T10:41:15.214Z,23.29
2023-05-02T10:42:15.211Z,23.29
2023-05-02T10:43:15.406Z,23.29
2023-05-02T10:44:15.202Z,23.29
2023-05-02T10:45:16.201Z,23.30
2023-05-02T10:46:15.194Z,23.30
2023-05-02T10:47:16.159Z,23.31
2023-05-02T10:48:16.200Z,23.31
2023-05-02T10:49:15.169Z,23.31
2023-05-02T10:50:16.188Z,23.32
2023-05-02T10:51:16.174Z,23.33
2023-05-02T10:52:15.168Z,23.33
2023-05-02T10:53:16.144Z,23.34
2023-05-02T10:54:16.143Z,23.34
2023-05-02T10:55:16.105Z,23.34
2023-05-02T10:56:15.136Z,23.36
2023-05-02T10:57:15.117Z,23.36
2023-05-02T10:58:16.132Z,23.37
2023-05-02T10:59:15.096Z,23.38
2023-05-02T11:00:15.088Z,23.38
2023-05-02T11:01:15.088Z,23.38
2023-05-02T11:02:16.096Z,23.39
2023-05-02T11:03:16.232Z,23.40
2023-05-02T11:04:16.058Z,23.40
2023-05-02T11:05:16.081Z,23.39
2023-05-02T11:06:16.135Z,23.39
2023-05-02T11:07:16.051Z,23.38
2023-05-02T11:08:16.823Z,23.39
2023-05-02T11:09:16.106Z,23.39
2023-05-02T11:10:16.125Z,23.39
2023-05-02T11:11:15.101Z,23.39
2023-05-02T11:12:15.297Z,23.39
2023-05-02T11:13:16.178Z,23.39
2023-05-02T11:14:16.343Z,23.39
2023-05-02T11:15:15.166Z,23.39
2023-05-02T11:16:15.209Z,23.39
2023-05-02T11:17:15.187Z,23.38
2023-05-02T11:18:16.306Z,23.38
2023-05-02T11:19:16.218Z,23.39
2023-05-02T11:20:16.227Z,23.39
2023-05-02T11:21:16.262Z,23.37
2023-05-02T11:22:16.257Z,23.39
2023-05-02T11:23:16.616Z,23.38
2023-05-02T11:24:15.256Z,23.38
2023-05-02T11:25:16.302Z,23.39
2023-05-02T11:26:16.270Z,23.39
2023-05-02T11:27:16.287Z,23.39
2023-05-02T11:28:16.357Z,23.39
2023-05-02T11:29:15.294Z,23.40
2023-05-02T11:30:16.296Z,23.39
2023-05-02T11:31:16.297Z,23.39
2023-05-02T11:32:16.371Z,23.52
2023-05-02T11:33:15.409Z,23.50
2023-05-02T11:34:15.335Z,23.47
2023-05-02T11:35:15.338Z,23.45
2023-05-02T11:36:15.343Z,23.64
2023-05-02T11:37:15.391Z,23.60
2023-05-02T11:38:16.390Z,23.54
2023-05-02T11:39:16.939Z,23.51
2023-05-02T11:40:15.452Z,23.48
2023-05-02T11:41:15.451Z,23.47
2023-05-02T11:42:15.465Z,23.45
2023-05-02T11:43:16.491Z,23.43
2023-05-02T11:44:16.495Z,23.41
2023-05-02T11:45:16.520Z,23.39
2023-05-02T11:46:15.558Z,23.42
2023-05-02T11:47:15.557Z,23.44
2023-05-02T11:48:16.611Z,23.43
2023-05-02T11:49:15.601Z,23.41
2023-05-02T11:50:15.625Z,23.41
2023-05-02T11:51:15.660Z,23.41
2023-05-02T11:52:15.651Z,23.41
2023-05-02T11:53:16.682Z,23.43
2023-05-02T11:54:16.715Z,23.44
2023-05-02T11:55:16.032Z,23.44
2023-05-02T11:56:15.755Z,23.45
2023-05-02T11:57:15.802Z,23.47
2023-05-02T11:58:16.854Z,23.47
2023-05-02T11:59:16.851Z,23.44
2023-05-02T12:00:16.877Z,23.44
2023-05-02T12:01:16.918Z,23.43
2023-05-02T12:02:15.987Z,23.41
2023-05-02T12:03:16.068Z,23.39
2023-05-02T12:04:17.006Z,23.38
2023-05-02T12:05:16.115Z,23.36
2023-05-02T12:06:16.313Z,23.35
2023-05-02T12:07:16.152Z,23.33
2023-05-02T12:08:17.151Z,23.31
2023-05-02T12:09:17.177Z,23.29
2023-05-02T12:10:16.256Z,23.29
2023-05-02T12:11:17.368Z,23.28
2023-05-02T12:12:16.281Z,23.28
2023-05-02T12:13:16.305Z,23.28
2023-05-02T12:14:16.342Z,23.31
2023-05-02T12:15:17.391Z,23.31
2023-05-02T12:16:17.523Z,23.32
2023-05-02T12:17:16.468Z,23.35
2023-05-02T12:18:18.063Z,23.33
2023-05-02T12:19:17.582Z,23.32
2023-05-02T12:20:16.597Z,23.30
2023-05-02T12:21:17.624Z,23.33
2023-05-02T12:22:17.689Z,23.32
2023-05-02T12:23:17.719Z,23.32
2023-05-02T12:24:16.715Z,23.32
2023-05-02T12:25:16.789Z,23.30
2023-05-02T12:26:17.774Z,23.32
2023-05-02T12:27:17.864Z,23.31
2023-05-02T12:28:17.873Z,23.32
2023-05-02T12:29:16.962Z,23.33
2023-05-02T12:30:18.005Z,23.34
2023-05-02T12:31:16.968Z,23.33
2023-05-02T12:32:17.000Z,23.32
2023-05-02T12:33:17.228Z,23.34
2023-05-02T12:34:18.121Z,23.32
2023-05-02T12:35:17.102Z,23.32
2023-05-02T12:36:18.136Z,23.33
2023-05-02T12:37:17.167Z,23.31
2023-05-02T12:38:18.235Z,23.29
2023-05-02T12:39:17.224Z,23.28
2023-05-02T12:40:18.247Z,23.27
2023-05-02T12:41:18.280Z,23.27
2023-05-02T12:42:18.328Z,23.26
2023-05-02T12:43:18.375Z,23.24
2023-05-02T12:44:17.399Z,23.23
2023-05-02T12:45:17.445Z,23.23
2023-05-02T12:46:18.476Z,23.26
2023-05-02T12:47:18.523Z,23.23
2023-05-02T12:48:18.515Z,23.22
2023-05-02T12:49:17.568Z,23.22
2023-05-02T12:50:18.623Z,23.21
2023-05-02T12:51:17.621Z,23.22
2023-05-02T12:52:18.656Z,23.22
2023-05-02T12:53:17.707Z,23.23
2023-05-02T12:54:18.751Z,23.22
2023-05-02T12:55:18.767Z,23.20
2023-05-02T12:56:17.822Z,23.20
2023-05-02T12:57:18.863Z,23.20
2023-05-02T12:58:18.885Z,23.18
2023-05-02T12:59:19.028Z,23.19
2023-05-02T13:00:19.023Z,23.18
2023-05-02T13:01:19.120Z,23.18
2023-05-02T13:02:19.098Z,23.19
2023-05-02T13:03:18.267Z,23.20
2023-05-02T13:04:19.302Z,23.20
2023-05-02T13:05:19.227Z,23.20
2023-05-02T13:06:18.356Z,23.20
2023-05-02T13:07:19.357Z,23.23
2023-05-02T13:08:19.428Z,23.25
2023-05-02T13:09:19.442Z,23.23
2023-05-02T13:10:18.472Z,23.21
2023-05-02T13:11:19.530Z,23.30
2023-05-02T13:12:19.575Z,23.29
2023-05-02T13:13:19.603Z,23.26
2023-05-02T13:14:19.683Z,23.22
2023-05-02T13:15:19.743Z,23.25
2023-05-02T13:16:19.861Z,23.23
2023-05-02T13:17:19.939Z,23.21
2023-05-02T13:18:18.904Z,23.20
2023-05-02T13:19:19.890Z,23.19
2023-05-02T13:20:18.924Z,23.19
2023-05-02T13:21:19.969Z,23.20
2023-05-02T13:22:19.015Z,23.20
2023-05-02T13:23:20.056Z,23.19
2023-05-02T13:24:19.114Z,23.18
2023-05-02T13:25:20.185Z,23.17
2023-05-02T13:26:20.211Z,23.17
2023-05-02T13:27:20.220Z,23.17
2023-05-02T13:28:19.271Z,23.18
2023-05-02T13:29:20.312Z,23.19
2023-05-02T13:30:19.428Z,23.22
2023-05-02T13:31:20.536Z,23.21
2023-05-02T13:32:19.444Z,23.21
2023-05-02T13:33:19.512Z,23.21
2023-05-02T13:34:19.557Z,23.21
2023-05-02T13:35:20.565Z,23.21
2023-05-02T13:36:19.662Z,23.20
2023-05-02T13:37:21.458Z,23.21
2023-05-02T13:38:19.705Z,23.21
2023-05-02T13:39:20.799Z,23.22
2023-05-02T13:40:19.797Z,23.21
2023-05-02T13:41:20.814Z,23.22
2023-05-02T13:42:19.884Z,23.20
2023-05-02T13:43:19.908Z,23.20
2023-05-02T13:44:21.030Z,23.20
2023-05-02T13:45:20.006Z,23.19
2023-05-02T13:46:20.132Z,23.19
2023-05-02T13:47:21.136Z,23.18
2023-05-02T13:48:21.152Z,23.19
2023-05-02T13:49:20.172Z,23.19
2023-05-02T13:50:20.238Z,23.19
2023-05-02T13:51:21.275Z,23.19
2023-05-02T13:52:20.323Z,23.19
2023-05-02T13:53:21.326Z,23.19
2023-05-02T13:54:20.373Z,23.18
2023-05-02T13:55:20.423Z,23.19
2023-05-02T13:56:21.484Z,23.18
2023-05-02T13:57:21.523Z,23.19
2023-05-02T13:58:20.536Z,23.19
2023-05-02T13:59:20.603Z,23.18
2023-05-02T14:00:20.613Z,23.18
2023-05-02T14:01:21.680Z,23.18
2023-05-02T14:02:20.742Z,23.18
2023-05-02T14:03:21.862Z,23.19
2023-05-02T14:04:21.677Z,23.19
2023-05-02T14:05:21.830Z,23.19
2023-05-02T14:06:21.973Z,23.21
2023-05-02T14:07:21.896Z,23.22
2023-05-02T14:08:20.976Z,23.22
2023-05-02T14:09:21.004Z,23.21
2023-05-02T14:10:21.046Z,23.24
2023-05-02T14:11:22.116Z,23.24
2023-05-02T14:12:22.132Z,23.22
2023-05-02T14:13:22.130Z,23.22
2023-05-02T14:14:21.228Z,23.20
2023-05-02T14:15:21.236Z,23.20
2023-05-02T14:16:21.394Z,23.20
2023-05-02T14:17:21.367Z,23.18
2023-05-02T14:18:22.366Z,23.18
2023-05-02T14:19:22.433Z,23.18
2023-05-02T14:20:22.418Z,23.17
2023-05-02T14:21:21.516Z,23.17
2023-05-02T14:22:21.508Z,23.15
2023-05-02T14:23:22.584Z,23.16
2023-05-02T14:24:22.618Z,23.16
2023-05-02T14:25:22.632Z,23.16
2023-05-02T14:26:21.724Z,23.17
2023-05-02T14:27:22.726Z,23.19
2023-05-02T14:28:21.762Z,23.18
2023-05-02T14:29:22.839Z,23.18
2023-05-02T14:30:22.860Z,23.19
2023-05-02T14:31:21.931Z,23.18
2023-05-02T14:32:22.929Z,23.17
2023-05-02T14:33:23.000Z,23.17
2023-05-02T14:34:22.084Z,23.17
2023-05-02T14:35:22.516Z,23.16
2023-05-02T14:36:22.118Z,23.15
2023-05-02T14:37:22.150Z,23.14
2023-05-02T14:38:23.220Z,23.14
2023-05-02T14:39:23.261Z,23.15
2023-05-02T14:40:23.287Z,23.14
2023-05-02T14:41:23.357Z,23.13
2023-05-02T14:42:23.403Z,23.12
2023-05-02T14:43:23.435Z,23.12
2023-05-02T14:44:22.469Z,23.13
2023-05-02T14:45:23.538Z,23.14
2023-05-02T14:46:23.673Z,23.14
2023-05-02T14:47:22.687Z,23.13
2023-05-02T14:48:23.716Z,23.12
2023-05-02T14:49:23.792Z,23.12
2023-05-02T14:50:22.778Z,23.13
2023-05-02T14:51:22.850Z,23.13
2023-05-02T14:52:22.912Z,23.11
2023-05-02T14:53:22.940Z,23.11
2023-05-02T14:54:23.997Z,23.11
2023-05-02T14:55:24.083Z,23.12
2023-05-02T14:56:23.104Z,23.12
2023-05-02T14:57:24.182Z,23.13
2023-05-02T14:58:23.259Z,23.12
2023-05-02T14:59:23.290Z,23.12
2023-05-02T15:00:23.325Z,23.16
2023-05-02T15:01:23.466Z,23.19
2023-05-02T15:02:23.537Z,23.22
2023-05-02T15:03:24.729Z,23.20
2023-05-02T15:04:23.660Z,23.21
2023-05-02T15:05:23.754Z,23.26
2023-05-02T15:06:23.792Z,23.26
2023-05-02T15:07:24.021Z,23.23
2023-05-02T15:08:24.760Z,23.22
2023-05-02T15:09:23.778Z,23.19
2023-05-02T15:10:24.843Z,23.26
2023-05-02T15:11:23.880Z,23.21
2023-05-02T15:12:23.938Z,23.22
2023-05-02T15:13:24.990Z,23.23
2023-05-02T15:14:25.029Z,23.21
2023-05-02T15:15:25.199Z,23.21
2023-05-02T15:16:25.167Z,23.24
2023-05-02T15:17:25.230Z,23.20
2023-05-02T15:18:25.266Z,23.22
2023-05-02T15:19:25.364Z,23.27
2023-05-02T15:20:24.364Z,23.37
2023-05-02T15:21:24.444Z,23.34
2023-05-02T15:22:25.483Z,23.33
2023-05-02T15:23:24.583Z,23.34
2023-05-02T15:24:25.596Z,23.32
2023-05-02T15:25:25.698Z,23.34
2023-05-02T15:26:25.734Z,23.34
2023-05-02T15:27:24.778Z,23.37
2023-05-02T15:28:24.873Z,23.48
2023-05-02T15:29:24.916Z,23.43
